Rolla, Kansas
Current Conditions -  °F | °C
As of 1:53 PM on Wednesday 28 Jan 2015 (Local Time) from KGUY Reporting Station
Clear Clear  
Wind Chill: 22°   Ceiling: Unl
Heat Index: 22°   Visibility: 10mi
Dew Point: -1°   Wind: 13mph
Humidity: 22%   Direction: 360°N
Pressure: 29.95"   Gusts: NA
Location:  37.12°N, 101.63°W
Report Text: KGUY 281953Z AUTO 36011KT 10SM CLR 22/M01 A2995 RMK AO2 SLP121 T02171011
Loading
Personal Weather Stations






























Interactive Weather Map New forecast layout! Learn more

10-Day Weather Forecast

Advertisements
Track Severe Weather on mobile